TAF KDVT
KDVT 270520Z 2706/2806 04005KT P6SM SCT250 FM271600 VRB04KT P6SM SKC FM272100 22005KT P6SM SKC FM280300 05004KT P6SM SKC=
METAR KDVT
WC KDVT
WS KDVT
WV KDVT